DIBK

Bouaké Airport

Airport
ICAO code
DIBK
IATA Code
BYK
Summary
ICAO Region
AFI
ICAO Territory
Location

Bouaké, Gebeke Region

Serving
Bouaké
Elevation
1231 ft
Coordinates
7° 44' 20" N , 5° 4' 25" W
KCC
Aw
Metar
Observation
DIBK 112000Z 16004KT 9999 FEW013 25/24 Q1013 NOSIG
Station
Bouake
Date/Time
2022-08-11 20:00:00
Wind direction
160°
Wind speed
04 kts
Lowest cloud amount
few clouds
Temperature
25°C
Dew point
24°C
Humidity
94%
QNH
1013 hPa
Weather condition
n/a

Bouaké Airport is an airport located in Bouaké, the second largest city in Côte d'Ivoire.

Climatology

Tropical Savannah climate (Köppen climate classification Aw)

Runways

Designator Length Width Surface Rops
3/21 3300 45 ASP No/No

Airport map

Aerial View

SKYbrary Partners:

Safety knowledge contributed by: